Terminal Aerodrome Forecast
Issued by NWS

Home | Current Version | Previous Version | Text Only | Print | Product List | Glossary On
Versions: 1 2 3 4 5 6 7 8 9 10 11 12 13 14
000
FTUS46 KMTR 251133
TAFOAK
TAF
KOAK 251133Z 2512/2618 VRB04KT P6SM SKC
     FM251800 27007KT P6SM FEW150
     FM252300 27014KT P6SM FEW030 SCT150
     FM260300 27013KT P6SM SCT020 SCT150
      TEMPO 2603/2606 BKN020
     FM260600 23010KT P6SM BKN020 OVC030
     FM261100 17011KT 6SM -RA BR BKN015 OVC020=

USA.gov is the U.S. government's official web portal to all federal, state and local government web resources and services.